sensor_id;sensor_type;location;lat;lon;timestamp;temperature;humidity
41953;DHT22;63613;28.200;112.870;2023-08-06T00:00:57;31.90;58.60
41953;DHT22;63613;28.200;112.870;2023-08-06T00:03:24;31.90;58.70
41953;DHT22;63613;28.200;112.870;2023-08-06T00:05:51;31.90;59.50
41953;DHT22;63613;28.200;112.870;2023-08-06T00:08:17;31.90;59.50
41953;DHT22;63613;28.200;112.870;2023-08-06T00:10:44;31.90;59.10
41953;DHT22;63613;28.200;112.870;2023-08-06T00:13:11;31.90;59.50
41953;DHT22;63613;28.200;112.870;2023-08-06T00:15:37;31.90;59.20
41953;DHT22;63613;28.200;112.870;2023-08-06T00:18:04;32.00;59.60
41953;DHT22;63613;28.200;112.870;2023-08-06T00:20:52;32.00;59.80
41953;DHT22;63613;28.200;112.870;2023-08-06T00:23:19;32.00;60.10
41953;DHT22;63613;28.200;112.870;2023-08-06T00:25:48;32.00;60.10
41953;DHT22;63613;28.200;112.870;2023-08-06T00:28:15;32.00;60.50
41953;DHT22;63613;28.200;112.870;2023-08-06T00:30:41;32.10;60.30
41953;DHT22;63613;28.200;112.870;2023-08-06T00:33:08;32.10;60.80
41953;DHT22;63613;28.200;112.870;2023-08-06T00:35:35;32.10;60.60
41953;DHT22;63613;28.200;112.870;2023-08-06T00:38:02;32.10;59.90
41953;DHT22;63613;28.200;112.870;2023-08-06T00:40:28;32.10;60.10
41953;DHT22;63613;28.200;112.870;2023-08-06T00:42:56;32.10;59.90
41953;DHT22;63613;28.200;112.870;2023-08-06T00:45:23;32.10;59.70
41953;DHT22;63613;28.200;112.870;2023-08-06T00:47:50;32.10;59.30
41953;DHT22;63613;28.200;112.870;2023-08-06T00:50:16;32.10;59.10
41953;DHT22;63613;28.200;112.870;2023-08-06T00:52:43;32.10;58.90
41953;DHT22;63613;28.200;112.870;2023-08-06T00:55:10;32.10;58.80
41953;DHT22;63613;28.200;112.870;2023-08-06T00:57:57;32.20;58.40
41953;DHT22;63613;28.200;112.870;2023-08-06T01:00:25;32.20;58.20
41953;DHT22;63613;28.200;112.870;2023-08-06T01:02:52;32.20;58.40
41953;DHT22;63613;28.200;112.870;2023-08-06T01:05:23;32.20;59.20
41953;DHT22;63613;28.200;112.870;2023-08-06T01:13:47;32.20;59.40
41953;DHT22;63613;28.200;112.870;2023-08-06T01:16:20;32.20;59.00
41953;DHT22;63613;28.200;112.870;2023-08-06T01:18:49;32.20;59.30
41953;DHT22;63613;28.200;112.870;2023-08-06T01:21:17;32.20;58.70
41953;DHT22;63613;28.200;112.870;2023-08-06T01:23:44;32.20;58.50
41953;DHT22;63613;28.200;112.870;2023-08-06T01:28:53;32.30;58.10
41953;DHT22;63613;28.200;112.870;2023-08-06T01:31:27;32.30;57.60
41953;DHT22;63613;28.200;112.870;2023-08-06T01:33:54;32.30;58.30
41953;DHT22;63613;28.200;112.870;2023-08-06T01:36:22;32.30;58.10
41953;DHT22;63613;28.200;112.870;2023-08-06T01:38:50;32.30;57.40
41953;DHT22;63613;28.200;112.870;2023-08-06T01:41:17;32.40;58.20
41953;DHT22;63613;28.200;112.870;2023-08-06T01:43:44;32.30;57.70
41953;DHT22;63613;28.200;112.870;2023-08-06T01:46:11;32.40;58.30
41953;DHT22;63613;28.200;112.870;2023-08-06T01:48:38;32.40;58.10
41953;DHT22;63613;28.200;112.870;2023-08-06T01:51:07;32.40;57.10
41953;DHT22;63613;28.200;112.870;2023-08-06T01:53:34;32.40;57.50
41953;DHT22;63613;28.200;112.870;2023-08-06T01:56:01;32.50;56.80
41953;DHT22;63613;28.200;112.870;2023-08-06T01:58:28;32.50;56.20
41953;DHT22;63613;28.200;112.870;2023-08-06T02:00:55;32.50;55.60
41953;DHT22;63613;28.200;112.870;2023-08-06T02:03:21;32.50;55.30
41953;DHT22;63613;28.200;112.870;2023-08-06T02:05:48;32.50;55.50
41953;DHT22;63613;28.200;112.870;2023-08-06T02:08:15;32.50;54.50
41953;DHT22;63613;28.200;112.870;2023-08-06T02:10:42;32.50;53.70
41953;DHT22;63613;28.200;112.870;2023-08-06T02:13:08;32.50;54.20
41953;DHT22;63613;28.200;112.870;2023-08-06T02:15:35;32.50;52.80
41953;DHT22;63613;28.200;112.870;2023-08-06T02:18:02;32.60;52.80
41953;DHT22;63613;28.200;112.870;2023-08-06T02:20:30;32.60;52.70
41953;DHT22;63613;28.200;112.870;2023-08-06T02:22:56;32.60;52.10
41953;DHT22;63613;28.200;112.870;2023-08-06T02:25:24;32.70;52.20
41953;DHT22;63613;28.200;112.870;2023-08-06T02:27:51;32.70;52.20
41953;DHT22;63613;28.200;112.870;2023-08-06T02:30:17;32.70;51.70
41953;DHT22;63613;28.200;112.870;2023-08-06T02:32:44;32.70;51.10
41953;DHT22;63613;28.200;112.870;2023-08-06T02:35:31;32.70;50.70
41953;DHT22;63613;28.200;112.870;2023-08-06T02:37:59;32.70;50.60
41953;DHT22;63613;28.200;112.870;2023-08-06T02:40:28;32.70;50.60
41953;DHT22;63613;28.200;112.870;2023-08-06T02:42:56;32.70;50.30
41953;DHT22;63613;28.200;112.870;2023-08-06T02:45:23;32.70;49.80
41953;DHT22;63613;28.200;112.870;2023-08-06T02:47:50;32.70;49.10
41953;DHT22;63613;28.200;112.870;2023-08-06T02:50:17;32.70;48.50
41953;DHT22;63613;28.200;112.870;2023-08-06T02:52:43;32.70;47.90
41953;DHT22;63613;28.200;112.870;2023-08-06T02:55:11;32.70;47.40
41953;DHT22;63613;28.200;112.870;2023-08-06T02:57:38;32.70;49.70
41953;DHT22;63613;28.200;112.870;2023-08-06T03:00:05;32.70;50.40
41953;DHT22;63613;28.200;112.870;2023-08-06T03:02:32;32.80;49.40
41953;DHT22;63613;28.200;112.870;2023-08-06T03:04:59;32.70;48.40
41953;DHT22;63613;28.200;112.870;2023-08-06T03:07:26;32.80;48.40
41953;DHT22;63613;28.200;112.870;2023-08-06T03:09:53;32.80;47.80
41953;DHT22;63613;28.200;112.870;2023-08-06T03:12:19;32.80;47.90
41953;DHT22;63613;28.200;112.870;2023-08-06T03:14:46;32.80;50.50
41953;DHT22;63613;28.200;112.870;2023-08-06T03:17:14;32.80;50.10
41953;DHT22;63613;28.200;112.870;2023-08-06T03:19:43;32.80;49.70
41953;DHT22;63613;28.200;112.870;2023-08-06T03:22:09;32.90;49.60
41953;DHT22;63613;28.200;112.870;2023-08-06T03:24:36;32.90;51.20
41953;DHT22;63613;28.200;112.870;2023-08-06T03:27:05;32.90;51.00
41953;DHT22;63613;28.200;112.870;2023-08-06T03:29:34;33.00;51.20
41953;DHT22;63613;28.200;112.870;2023-08-06T03:32:01;32.90;50.10
41953;DHT22;63613;28.200;112.870;2023-08-06T03:34:28;33.00;49.00
41953;DHT22;63613;28.200;112.870;2023-08-06T03:36:54;32.90;48.00
41953;DHT22;63613;28.200;112.870;2023-08-06T03:39:41;33.00;47.10
41953;DHT22;63613;28.200;112.870;2023-08-06T03:42:08;33.00;46.20
41953;DHT22;63613;28.200;112.870;2023-08-06T03:44:35;33.00;45.40
41953;DHT22;63613;28.200;112.870;2023-08-06T03:47:01;33.10;44.70
41953;DHT22;63613;28.200;112.870;2023-08-06T03:49:29;33.10;44.00
41953;DHT22;63613;28.200;112.870;2023-08-06T03:51:55;33.10;43.60
41953;DHT22;63613;28.200;112.870;2023-08-06T03:54:22;33.10;43.10
41953;DHT22;63613;28.200;112.870;2023-08-06T03:56:49;33.10;44.70
41953;DHT22;63613;28.200;112.870;2023-08-06T03:59:18;33.10;43.50
41953;DHT22;63613;28.200;112.870;2023-08-06T04:01:45;33.20;42.80
41953;DHT22;63613;28.200;112.870;2023-08-06T04:04:12;33.10;42.20
41953;DHT22;63613;28.200;112.870;2023-08-06T04:06:39;33.20;41.70
41953;DHT22;63613;28.200;112.870;2023-08-06T04:09:05;33.20;41.30
41953;DHT22;63613;28.200;112.870;2023-08-06T04:11:32;33.20;41.10
41953;DHT22;63613;28.200;112.870;2023-08-06T04:13:59;33.20;40.70
41953;DHT22;63613;28.200;112.870;2023-08-06T04:16:26;33.20;40.40
41953;DHT22;63613;28.200;112.870;2023-08-06T04:18:52;33.20;39.90
41953;DHT22;63613;28.200;112.870;2023-08-06T04:21:24;33.30;39.70
41953;DHT22;63613;28.200;112.870;2023-08-06T04:24:11;33.20;39.30
41953;DHT22;63613;28.200;112.870;2023-08-06T04:26:38;33.30;39.00
41953;DHT22;63613;28.200;112.870;2023-08-06T04:29:05;33.30;39.20
41953;DHT22;63613;28.200;112.870;2023-08-06T04:31:31;33.30;39.90
41953;DHT22;63613;28.200;112.870;2023-08-06T04:33:58;33.40;39.90
41953;DHT22;63613;28.200;112.870;2023-08-06T04:36:25;33.40;39.50
41953;DHT22;63613;28.200;112.870;2023-08-06T04:38:53;33.40;39.60
41953;DHT22;63613;28.200;112.870;2023-08-06T04:41:20;33.50;43.40
41953;DHT22;63613;28.200;112.870;2023-08-06T04:43:46;33.60;44.60
41953;DHT22;63613;28.200;112.870;2023-08-06T04:46:14;33.60;45.80
41953;DHT22;63613;28.200;112.870;2023-08-06T04:49:01;33.60;45.60
41953;DHT22;63613;28.200;112.870;2023-08-06T04:51:28;33.70;47.50
41953;DHT22;63613;28.200;112.870;2023-08-06T04:53:56;33.70;48.30
41953;DHT22;63613;28.200;112.870;2023-08-06T04:56:23;33.70;48.80
41953;DHT22;63613;28.200;112.870;2023-08-06T04:58:50;33.80;49.20
41953;DHT22;63613;28.200;112.870;2023-08-06T05:01:17;33.80;48.40
41953;DHT22;63613;28.200;112.870;2023-08-06T05:03:44;33.70;49.20
41953;DHT22;63613;28.200;112.870;2023-08-06T05:06:11;33.70;50.10
41953;DHT22;63613;28.200;112.870;2023-08-06T05:08:40;33.80;49.70
41953;DHT22;63613;28.200;112.870;2023-08-06T05:11:27;33.90;49.80
41953;DHT22;63613;28.200;112.870;2023-08-06T05:13:55;33.90;50.00
41953;DHT22;63613;28.200;112.870;2023-08-06T05:16:22;33.90;49.70
41953;DHT22;63613;28.200;112.870;2023-08-06T05:18:53;33.90;48.80
41953;DHT22;63613;28.200;112.870;2023-08-06T05:21:23;33.90;48.00
41953;DHT22;63613;28.200;112.870;2023-08-06T05:23:50;33.90;47.00
41953;DHT22;63613;28.200;112.870;2023-08-06T05:26:19;33.90;47.00
41953;DHT22;63613;28.200;112.870;2023-08-06T05:28:46;34.00;47.50
41953;DHT22;63613;28.200;112.870;2023-08-06T05:31:13;33.90;46.50
41953;DHT22;63613;28.200;112.870;2023-08-06T05:33:40;33.90;46.00
41953;DHT22;63613;28.200;112.870;2023-08-06T05:36:09;33.90;45.30
41953;DHT22;63613;28.200;112.870;2023-08-06T05:38:36;34.00;46.00
41953;DHT22;63613;28.200;112.870;2023-08-06T05:41:03;34.00;45.90
41953;DHT22;63613;28.200;112.870;2023-08-06T05:43:30;34.00;45.40
41953;DHT22;63613;28.200;112.870;2023-08-06T05:46:17;34.00;44.70
41953;DHT22;63613;28.200;112.870;2023-08-06T05:48:44;34.00;44.90
41953;DHT22;63613;28.200;112.870;2023-08-06T05:51:12;34.00;44.60
41953;DHT22;63613;28.200;112.870;2023-08-06T05:53:44;34.00;45.90
41953;DHT22;63613;28.200;112.870;2023-08-06T05:56:13;34.10;46.10
41953;DHT22;63613;28.200;112.870;2023-08-06T05:58:43;34.00;45.70
41953;DHT22;63613;28.200;112.870;2023-08-06T06:01:16;33.90;45.30
41953;DHT22;63613;28.200;112.870;2023-08-06T06:03:46;33.90;44.80
41953;DHT22;63613;28.200;112.870;2023-08-06T06:06:14;33.90;44.30
41953;DHT22;63613;28.200;112.870;2023-08-06T06:08:42;34.00;43.50
41953;DHT22;63613;28.200;112.870;2023-08-06T06:11:09;34.00;42.90
41953;DHT22;63613;28.200;112.870;2023-08-06T06:13:37;33.90;42.20
41953;DHT22;63613;28.200;112.870;2023-08-06T06:16:07;34.00;41.50
41953;DHT22;63613;28.200;112.870;2023-08-06T06:18:34;33.90;40.60
41953;DHT22;63613;28.200;112.870;2023-08-06T06:21:00;34.00;39.80
41953;DHT22;63613;28.200;112.870;2023-08-06T06:23:49;34.00;39.80
41953;DHT22;63613;28.200;112.870;2023-08-06T06:26:20;34.00;39.80
41953;DHT22;63613;28.200;112.870;2023-08-06T06:28:47;34.10;40.60
41953;DHT22;63613;28.200;112.870;2023-08-06T06:31:19;34.10;40.90
41953;DHT22;63613;28.200;112.870;2023-08-06T06:33:46;34.10;40.50
41953;DHT22;63613;28.200;112.870;2023-08-06T06:36:18;34.10;40.70
41953;DHT22;63613;28.200;112.870;2023-08-06T06:38:46;34.10;40.70
41953;DHT22;63613;28.200;112.870;2023-08-06T06:41:16;34.10;41.40
41953;DHT22;63613;28.200;112.870;2023-08-06T06:43:44;34.20;42.30
41953;DHT22;63613;28.200;112.870;2023-08-06T06:46:13;34.20;42.10
41953;DHT22;63613;28.200;112.870;2023-08-06T06:48:43;34.20;42.60
41953;DHT22;63613;28.200;112.870;2023-08-06T06:51:10;34.20;42.30
41953;DHT22;63613;28.200;112.870;2023-08-06T06:53:57;34.10;41.70
41953;DHT22;63613;28.200;112.870;2023-08-06T06:56:26;34.20;41.40
41953;DHT22;63613;28.200;112.870;2023-08-06T06:58:53;34.20;41.90
41953;DHT22;63613;28.200;112.870;2023-08-06T07:01:21;34.10;41.90
41953;DHT22;63613;28.200;112.870;2023-08-06T07:03:48;34.10;41.70
41953;DHT22;63613;28.200;112.870;2023-08-06T07:06:15;34.10;41.60
41953;DHT22;63613;28.200;112.870;2023-08-06T07:08:42;34.10;42.10
41953;DHT22;63613;28.200;112.870;2023-08-06T07:11:14;34.10;41.30
41953;DHT22;63613;28.200;112.870;2023-08-06T07:13:41;34.10;41.00
41953;DHT22;63613;28.200;112.870;2023-08-06T07:16:09;34.10;41.70
41953;DHT22;63613;28.200;112.870;2023-08-06T07:18:38;34.10;41.60
41953;DHT22;63613;28.200;112.870;2023-08-06T07:21:28;34.10;41.40
41953;DHT22;63613;28.200;112.870;2023-08-06T07:23:55;34.20;41.40
41953;DHT22;63613;28.200;112.870;2023-08-06T07:26:22;34.10;40.80
41953;DHT22;63613;28.200;112.870;2023-08-06T07:28:49;34.10;40.80
41953;DHT22;63613;28.200;112.870;2023-08-06T07:31:17;34.10;41.20
41953;DHT22;63613;28.200;112.870;2023-08-06T07:33:45;34.10;41.30
41953;DHT22;63613;28.200;112.870;2023-08-06T07:36:13;34.10;42.20
41953;DHT22;63613;28.200;112.870;2023-08-06T07:38:43;34.10;41.40
41953;DHT22;63613;28.200;112.870;2023-08-06T07:41:13;34.10;41.70
41953;DHT22;63613;28.200;112.870;2023-08-06T07:43:40;34.10;41.30
41953;DHT22;63613;28.200;112.870;2023-08-06T07:46:17;34.10;40.50
41953;DHT22;63613;28.200;112.870;2023-08-06T07:48:45;34.10;41.80
41953;DHT22;63613;28.200;112.870;2023-08-06T07:51:14;34.10;42.50
41953;DHT22;63613;28.200;112.870;2023-08-06T07:54:01;34.10;43.80
41953;DHT22;63613;28.200;112.870;2023-08-06T07:56:29;34.10;43.90
41953;DHT22;63613;28.200;112.870;2023-08-06T07:58:56;34.10;45.10
41953;DHT22;63613;28.200;112.870;2023-08-06T08:01:22;34.10;45.10
41953;DHT22;63613;28.200;112.870;2023-08-06T08:03:50;34.10;46.00
41953;DHT22;63613;28.200;112.870;2023-08-06T08:06:39;34.10;46.10
41953;DHT22;63613;28.200;112.870;2023-08-06T08:09:09;34.10;45.80
41953;DHT22;63613;28.200;112.870;2023-08-06T08:11:37;34.10;45.30
41953;DHT22;63613;28.200;112.870;2023-08-06T08:14:06;34.00;45.40
41953;DHT22;63613;28.200;112.870;2023-08-06T08:16:36;34.00;46.00
41953;DHT22;63613;28.200;112.870;2023-08-06T08:19:03;34.00;45.80
41953;DHT22;63613;28.200;112.870;2023-08-06T08:21:30;34.00;45.70
41953;DHT22;63613;28.200;112.870;2023-08-06T08:24:00;34.00;45.80
41953;DHT22;63613;28.200;112.870;2023-08-06T08:26:27;34.00;45.70
41953;DHT22;63613;28.200;112.870;2023-08-06T08:28:54;34.00;44.80
41953;DHT22;63613;28.200;112.870;2023-08-06T08:31:22;34.00;44.10
41953;DHT22;63613;28.200;112.870;2023-08-06T08:33:49;33.90;43.30
41953;DHT22;63613;28.200;112.870;2023-08-06T08:36:16;33.90;42.60
41953;DHT22;63613;28.200;112.870;2023-08-06T08:38:43;33.90;42.20
41953;DHT22;63613;28.200;112.870;2023-08-06T08:41:10;33.90;42.20
41953;DHT22;63613;28.200;112.870;2023-08-06T08:43:58;33.80;41.70
41953;DHT22;63613;28.200;112.870;2023-08-06T08:46:28;33.80;41.80
41953;DHT22;63613;28.200;112.870;2023-08-06T08:48:56;33.80;42.20
41953;DHT22;63613;28.200;112.870;2023-08-06T08:51:28;33.80;42.90
41953;DHT22;63613;28.200;112.870;2023-08-06T08:53:56;33.80;42.00
41953;DHT22;63613;28.200;112.870;2023-08-06T08:56:26;33.80;41.50
41953;DHT22;63613;28.200;112.870;2023-08-06T08:58:55;33.70;40.80
41953;DHT22;63613;28.200;112.870;2023-08-06T09:01:27;33.70;40.00
41953;DHT22;63613;28.200;112.870;2023-08-06T09:03:55;33.70;39.10
41953;DHT22;63613;28.200;112.870;2023-08-06T09:06:25;33.70;38.60
41953;DHT22;63613;28.200;112.870;2023-08-06T09:09:06;33.60;37.70
41953;DHT22;63613;28.200;112.870;2023-08-06T09:11:45;33.60;37.00
41953;DHT22;63613;28.200;112.870;2023-08-06T09:14:12;33.50;36.10
41953;DHT22;63613;28.200;112.870;2023-08-06T09:16:43;33.50;35.70
41953;DHT22;63613;28.200;112.870;2023-08-06T09:19:11;33.50;35.30
41953;DHT22;63613;28.200;112.870;2023-08-06T09:21:48;33.40;35.10
41953;DHT22;63613;28.200;112.870;2023-08-06T09:24:22;33.40;34.80
41953;DHT22;63613;28.200;112.870;2023-08-06T09:26:49;33.40;34.50
41953;DHT22;63613;28.200;112.870;2023-08-06T09:29:16;33.40;34.30
41953;DHT22;63613;28.200;112.870;2023-08-06T09:31:48;33.30;34.00
41953;DHT22;63613;28.200;112.870;2023-08-06T09:34:20;33.30;33.80
41953;DHT22;63613;28.200;112.870;2023-08-06T09:37:09;33.30;33.90
41953;DHT22;63613;28.200;112.870;2023-08-06T09:39:40;33.30;33.90
41953;DHT22;63613;28.200;112.870;2023-08-06T09:42:18;33.30;36.90
41953;DHT22;63613;28.200;112.870;2023-08-06T09:44:45;33.30;38.50
41953;DHT22;63613;28.200;112.870;2023-08-06T09:47:12;33.20;38.40
41953;DHT22;63613;28.200;112.870;2023-08-06T09:49:45;33.20;37.70
41953;DHT22;63613;28.200;112.870;2023-08-06T09:52:15;33.20;38.60
41953;DHT22;63613;28.200;112.870;2023-08-06T09:54:45;33.20;38.80
41953;DHT22;63613;28.200;112.870;2023-08-06T09:57:15;33.20;38.10
41953;DHT22;63613;28.200;112.870;2023-08-06T09:59:43;33.10;37.70
41953;DHT22;63613;28.200;112.870;2023-08-06T10:02:13;33.20;39.00
41953;DHT22;63613;28.200;112.870;2023-08-06T10:04:43;33.10;38.40
41953;DHT22;63613;28.200;112.870;2023-08-06T10:07:31;33.10;38.90
41953;DHT22;63613;28.200;112.870;2023-08-06T10:09:59;33.10;38.70
41953;DHT22;63613;28.200;112.870;2023-08-06T10:12:29;33.10;38.50
41953;DHT22;63613;28.200;112.870;2023-08-06T10:14:59;33.00;37.80
41953;DHT22;63613;28.200;112.870;2023-08-06T10:17:28;33.00;37.40
41953;DHT22;63613;28.200;112.870;2023-08-06T10:19:59;33.00;37.00
41953;DHT22;63613;28.200;112.870;2023-08-06T10:22:26;33.00;36.70
41953;DHT22;63613;28.200;112.870;2023-08-06T10:25:04;32.90;36.70
41953;DHT22;63613;28.200;112.870;2023-08-06T10:27:53;32.90;37.00
41953;DHT22;63613;28.200;112.870;2023-08-06T10:30:32;32.90;36.50
41953;DHT22;63613;28.200;112.870;2023-08-06T10:33:02;32.80;35.90
41953;DHT22;63613;28.200;112.870;2023-08-06T10:35:46;32.80;35.80
41953;DHT22;63613;28.200;112.870;2023-08-06T10:38:17;32.80;35.80
41953;DHT22;63613;28.200;112.870;2023-08-06T10:41:01;32.80;35.70
41953;DHT22;63613;28.200;112.870;2023-08-06T10:43:48;32.80;35.50
41953;DHT22;63613;28.200;112.870;2023-08-06T10:46:27;32.80;36.10
41953;DHT22;63613;28.200;112.870;2023-08-06T10:48:54;32.80;36.80
41953;DHT22;63613;28.200;112.870;2023-08-06T10:51:21;32.70;36.30
41953;DHT22;63613;28.200;112.870;2023-08-06T10:53:49;32.70;35.90
41953;DHT22;63613;28.200;112.870;2023-08-06T10:56:18;32.70;35.50
41953;DHT22;63613;28.200;112.870;2023-08-06T10:58:49;32.70;35.20
41953;DHT22;63613;28.200;112.870;2023-08-06T11:01:16;32.70;35.00
41953;DHT22;63613;28.200;112.870;2023-08-06T11:03:45;32.70;34.90
41953;DHT22;63613;28.200;112.870;2023-08-06T11:06:18;32.70;34.70
41953;DHT22;63613;28.200;112.870;2023-08-06T11:08:52;32.70;34.80
41953;DHT22;63613;28.200;112.870;2023-08-06T11:11:20;32.70;35.00
41953;DHT22;63613;28.200;112.870;2023-08-06T11:14:07;32.70;35.90
41953;DHT22;63613;28.200;112.870;2023-08-06T11:16:41;32.70;37.80
41953;DHT22;63613;28.200;112.870;2023-08-06T11:19:11;32.70;38.50
41953;DHT22;63613;28.200;112.870;2023-08-06T11:21:40;32.60;37.80
41953;DHT22;63613;28.200;112.870;2023-08-06T11:24:09;32.60;37.10
41953;DHT22;63613;28.200;112.870;2023-08-06T11:26:37;32.60;36.80
41953;DHT22;63613;28.200;112.870;2023-08-06T11:29:06;32.60;36.60
41953;DHT22;63613;28.200;112.870;2023-08-06T11:31:38;32.60;36.10
41953;DHT22;63613;28.200;112.870;2023-08-06T11:34:04;32.60;35.60
41953;DHT22;63613;28.200;112.870;2023-08-06T11:36:32;32.50;35.30
41953;DHT22;63613;28.200;112.870;2023-08-06T11:39:00;32.60;35.10
41953;DHT22;63613;28.200;112.870;2023-08-06T11:41:50;32.50;35.10
41953;DHT22;63613;28.200;112.870;2023-08-06T11:44:37;32.50;35.20
41953;DHT22;63613;28.200;112.870;2023-08-06T11:47:05;32.50;35.00
41953;DHT22;63613;28.200;112.870;2023-08-06T11:49:46;32.50;34.70
41953;DHT22;63613;28.200;112.870;2023-08-06T11:52:21;32.50;34.40
41953;DHT22;63613;28.200;112.870;2023-08-06T11:55:09;32.50;34.50
41953;DHT22;63613;28.200;112.870;2023-08-06T11:57:44;32.50;34.70
41953;DHT22;63613;28.200;112.870;2023-08-06T12:00:14;32.50;35.40
41953;DHT22;63613;28.200;112.870;2023-08-06T12:02:42;32.50;34.90
41953;DHT22;63613;28.200;112.870;2023-08-06T12:05:15;32.50;34.80
41953;DHT22;63613;28.200;112.870;2023-08-06T12:07:45;32.40;34.60
41953;DHT22;63613;28.200;112.870;2023-08-06T12:10:17;32.40;34.30
41953;DHT22;63613;28.200;112.870;2023-08-06T12:12:48;32.40;34.20
41953;DHT22;63613;28.200;112.870;2023-08-06T12:15:16;32.40;33.90
41953;DHT22;63613;28.200;112.870;2023-08-06T12:17:43;32.40;33.70
41953;DHT22;63613;28.200;112.870;2023-08-06T12:20:11;32.40;33.60
41953;DHT22;63613;28.200;112.870;2023-08-06T12:22:57;32.40;33.60
41953;DHT22;63613;28.200;112.870;2023-08-06T12:27:57;32.30;33.30
41953;DHT22;63613;28.200;112.870;2023-08-06T12:30:24;32.30;33.20
41953;DHT22;63613;28.200;112.870;2023-08-06T12:32:53;32.30;33.20
41953;DHT22;63613;28.200;112.870;2023-08-06T12:35:20;32.30;33.00
41953;DHT22;63613;28.200;112.870;2023-08-06T12:37:47;32.30;33.00
41953;DHT22;63613;28.200;112.870;2023-08-06T12:40:17;32.30;32.90
41953;DHT22;63613;28.200;112.870;2023-08-06T12:42:47;32.30;32.90
41953;DHT22;63613;28.200;112.870;2023-08-06T12:45:15;32.30;32.80
41953;DHT22;63613;28.200;112.870;2023-08-06T12:47:43;32.30;32.70
41953;DHT22;63613;28.200;112.870;2023-08-06T12:50:09;32.30;32.70
41953;DHT22;63613;28.200;112.870;2023-08-06T12:52:36;32.30;32.70
41953;DHT22;63613;28.200;112.870;2023-08-06T12:55:03;32.20;32.70
41953;DHT22;63613;28.200;112.870;2023-08-06T12:57:34;32.20;32.60
41953;DHT22;63613;28.200;112.870;2023-08-06T13:00:21;32.30;32.60
41953;DHT22;63613;28.200;112.870;2023-08-06T13:02:50;32.20;32.50
41953;DHT22;63613;28.200;112.870;2023-08-06T13:05:16;32.20;32.50
41953;DHT22;63613;28.200;112.870;2023-08-06T13:07:45;32.20;32.50
41953;DHT22;63613;28.200;112.870;2023-08-06T13:10:12;32.20;32.50
41953;DHT22;63613;28.200;112.870;2023-08-06T13:12:40;32.20;32.50
41953;DHT22;63613;28.200;112.870;2023-08-06T13:15:08;32.20;32.50
41953;DHT22;63613;28.200;112.870;2023-08-06T13:17:35;32.20;32.50
41953;DHT22;63613;28.200;112.870;2023-08-06T13:20:02;32.20;32.50
41953;DHT22;63613;28.200;112.870;2023-08-06T13:22:30;32.20;32.40
41953;DHT22;63613;28.200;112.870;2023-08-06T13:24:58;32.20;32.40
41953;DHT22;63613;28.200;112.870;2023-08-06T13:27:26;32.20;32.70
41953;DHT22;63613;28.200;112.870;2023-08-06T13:29:54;32.20;32.90
41953;DHT22;63613;28.200;112.870;2023-08-06T13:32:23;32.20;32.90
41953;DHT22;63613;28.200;112.870;2023-08-06T13:34:52;32.20;32.90
41953;DHT22;63613;28.200;112.870;2023-08-06T13:37:18;32.20;33.00
41953;DHT22;63613;28.200;112.870;2023-08-06T13:39:47;32.20;33.00
41953;DHT22;63613;28.200;112.870;2023-08-06T13:42:13;32.20;33.10
41953;DHT22;63613;28.200;112.870;2023-08-06T13:44:40;32.20;33.60
41953;DHT22;63613;28.200;112.870;2023-08-06T13:47:08;32.20;33.90
41953;DHT22;63613;28.200;112.870;2023-08-06T13:49:35;32.20;34.30
41953;DHT22;63613;28.200;112.870;2023-08-06T13:52:02;32.20;34.30
41953;DHT22;63613;28.200;112.870;2023-08-06T13:54:29;32.20;34.40
41953;DHT22;63613;28.200;112.870;2023-08-06T13:56:56;32.20;34.30
41953;DHT22;63613;28.200;112.870;2023-08-06T13:59:26;32.20;34.20
41953;DHT22;63613;28.200;112.870;2023-08-06T14:01:54;32.20;33.90
41953;DHT22;63613;28.200;112.870;2023-08-06T14:04:26;32.10;34.00
41953;DHT22;63613;28.200;112.870;2023-08-06T14:06:53;32.20;33.80
41953;DHT22;63613;28.200;112.870;2023-08-06T14:09:19;32.20;33.80
41953;DHT22;63613;28.200;112.870;2023-08-06T14:11:46;32.20;33.70
41953;DHT22;63613;28.200;112.870;2023-08-06T14:14:13;32.20;33.70
41953;DHT22;63613;28.200;112.870;2023-08-06T14:16:40;32.10;33.40
41953;DHT22;63613;28.200;112.870;2023-08-06T14:19:08;32.10;33.30
41953;DHT22;63613;28.200;112.870;2023-08-06T14:21:35;32.10;33.30
41953;DHT22;63613;28.200;112.870;2023-08-06T14:24:06;32.20;33.20
41953;DHT22;63613;28.200;112.870;2023-08-06T14:26:33;32.10;33.30
41953;DHT22;63613;28.200;112.870;2023-08-06T14:29:03;32.20;33.40
41953;DHT22;63613;28.200;112.870;2023-08-06T14:31:30;32.10;33.30
41953;DHT22;63613;28.200;112.870;2023-08-06T14:33:59;32.10;33.60
41953;DHT22;63613;28.200;112.870;2023-08-06T14:36:47;32.10;33.30
41953;DHT22;63613;28.200;112.870;2023-08-06T14:39:14;32.10;33.40
41953;DHT22;63613;28.200;112.870;2023-08-06T14:41:41;32.10;33.30
41953;DHT22;63613;28.200;112.870;2023-08-06T14:44:13;32.10;33.40
41953;DHT22;63613;28.200;112.870;2023-08-06T14:46:43;32.10;33.40
41953;DHT22;63613;28.200;112.870;2023-08-06T14:49:10;32.10;33.60
41953;DHT22;63613;28.200;112.870;2023-08-06T14:51:42;32.10;33.80
41953;DHT22;63613;28.200;112.870;2023-08-06T14:54:14;32.10;33.80
41953;DHT22;63613;28.200;112.870;2023-08-06T14:56:41;32.10;34.80
41953;DHT22;63613;28.200;112.870;2023-08-06T14:59:09;32.10;34.90
41953;DHT22;63613;28.200;112.870;2023-08-06T15:01:36;32.10;34.90
41953;DHT22;63613;28.200;112.870;2023-08-06T15:04:11;32.10;34.70
41953;DHT22;63613;28.200;112.870;2023-08-06T15:06:39;32.10;34.40
41953;DHT22;63613;28.200;112.870;2023-08-06T15:09:23;32.10;34.10
41953;DHT22;63613;28.200;112.870;2023-08-06T15:11:55;32.10;34.20
41953;DHT22;63613;28.200;112.870;2023-08-06T15:14:27;32.10;34.20
41953;DHT22;63613;28.200;112.870;2023-08-06T15:17:18;32.10;34.20
41953;DHT22;63613;28.200;112.870;2023-08-06T15:19:50;32.10;34.30
41953;DHT22;63613;28.200;112.870;2023-08-06T15:22:17;32.00;34.10
41953;DHT22;63613;28.200;112.870;2023-08-06T15:24:43;32.10;34.20
41953;DHT22;63613;28.200;112.870;2023-08-06T15:27:14;32.00;34.20
41953;DHT22;63613;28.200;112.870;2023-08-06T15:29:45;32.00;34.10